Aihui, Heilongjiang

9:11 PM CST on September 18, 2014 (GMT +0800)
Ignatyevo | Change Station
CLOSE
Current Station
Airport
Location: Blagovescensk,
Elevation: 636 ft
Nearby Weather Stations

Elev 636 ft 50.43 °N, 127.41 °E | Updated 2 hours ago

Clear
Clear
52 °F
Feels Like 52 °F
N
2
Wind Variable Wind from Variable

Today
High -- | Low -- °F
--% Chance of Precip.
Yesterday
High -- | Low -- °F
Precip. -- in
5:09 AM 5:38 PM
Waning Crescent, 27% visible
Pressure 30.01 in
Visibility -9999.0 miles
Clouds
Dew Point 46 °F
Humidity 82%
Rainfall 0.00 in
Snow Depth Not available.
UV Not available.
Pollen Not available.
Air Quality Not available.
Flu Activity Not available.
METAR UHBB 181100Z VRB01MPS CAVOK 11/08 Q1016 NOSIG RMK QFE745/0993 36090060

More Conditions Fewer Conditions

Pressure 30.01 in
Visibility -9999.0 miles
Clouds
Dew Point 46 °F
Humidity 82%
Rainfall 0.00 in
Snow Depth Not available.
UV Not available.
Pollen Not available.
Air Quality Not available.
Flu Activity Not available.
METAR UHBB 181100Z VRB01MPS CAVOK 11/08 Q1016 NOSIG RMK QFE745/0993 36090060

More Conditions Fewer Conditions

10-Day Weather Forecast

Almanac

Astronomy

Sep. 18, 2014 Rise Set
Actual Time 5:09 AM CST 5:38 PM CST
Civil Twilight 4:37 AM CST 6:10 PM CST
Nautical Twilight 3:58 AM CST 6:49 PM CST
Astronomical Twilight 3:17 AM CST 7:30 PM CST
Moon No Moon Rise 2:28 PM CST
Length of Visible Light 13h 33m
Length of Day
12h 28m
Tomorrow will be 3m 44s shorter.
Waning Crescent, 27% of the Moon is Illuminated
Today
Waning Crescent
Sep 24
New
Oct 1
First Quarter
Oct 8
Full
Oct 15
Last Quarter

Yesterday's Extremes

Country Highs Country Lows

Community

WunderPhotos

Upload Photos

1,754,334 photos uploaded!

Nearby

Snow Depth

Not available.

Earthquake Activity

City Distance Mag. Time & Date
No recent earthquake activity has been reported nearby.
Minimum magnitude displayed is 2.5.

Coastal Water Temperatures

Place Temperature
No Stations Reporting

Nearby Weather Stations